PWSweather.com
Personal Weather Stations
Station Observations
BALTRELAY
Relay, Baltimore, MD 21227

RelayBaltimore, MD 21227

Lat: 39.24588, Lon: -76.719772

Elevation: 221

Station Type: Davis Vantage Pro2 (6153)

http://www.relayweather.com

Latest ConditionsUpdated 5:20:00 PM GMT Friday, Dec 9, 2016
Currently Today's Max Today's Min Today's Average
Temperature 36.9°F2.7°C 37.4°F3.0°C 27.4°F-2.6°C 31.2°F-0.4°C
Dew Point 20.0°F-6.7°C 20.8°F-6.2°C 14.7°F-9.6°C 17.4°F-8.1°C
Winds 11.5 mph WNW18.5 kmh WNW 16.1 mph NW25.9 kmh NW - 8.6 mph 13.8 kmh
Wind Gusts 13.8 mph22.2 kmh 23.0 mph37.0 kmh - -
Humidity 50% 63% 50% 56%
Pressure 30.28 in1025.4 mb 30.30 in1026.1 mb 30.09 in1019.0 mb -
Hour Temp Dew Point Humidity Winds Wind Gusts Pressure Precip Precip Rate Daily Precip Total
05:20 PM 36.9°F2.7°C 20.0°F-6.7°C 50% 11.5 mph WNW18.5 kmh WNW 13.8 mph22.2 kmh 30.28 in1025.4 mb - 0.00 in0.0 mm 0.00 in0.0 mm
05:15 PM 37.1°F2.8°C 20.1°F-6.6°C 50% 12.7 mph WNW20.4 kmh WNW 20.7 mph33.3 kmh 30.28 in1025.4 mb - 0.00 in0.0 mm 0.00 in0.0 mm
05:10 PM 37.3°F2.9°C 20.8°F-6.2°C 51% 5.8 mph W9.3 kmh W 8.1 mph13.0 kmh 30.28 in1025.4 mb - 0.00 in0.0 mm 0.00 in0.0 mm
05:00 PM 36.7°F2.6°C 20.3°F-6.5°C 51% 13.8 mph WNW22.2 kmh WNW 20.7 mph33.3 kmh 30.29 in1025.7 mb - 0.00 in0.0 mm 0.00 in0.0 mm
04:50 PM 36.4°F2.4°C 20.0°F-6.7°C 51% 15.0 mph WNW24.1 kmh WNW 23.0 mph37.0 kmh 30.29 in1025.7 mb - 0.00 in0.0 mm 0.00 in0.0 mm
04:45 PM 36.4°F2.4°C 20.4°F-6.4°C 52% 11.5 mph WNW18.5 kmh WNW 18.4 mph29.6 kmh 30.29 in1025.7 mb - 0.00 in0.0 mm 0.00 in0.0 mm
04:40 PM 36.5°F2.5°C 20.0°F-6.7°C 51% 13.8 mph WNW22.2 kmh WNW 21.9 mph35.2 kmh 30.29 in1025.7 mb - 0.00 in0.0 mm 0.00 in0.0 mm
04:30 PM 36.4°F2.4°C 20.4°F-6.4°C 52% 9.2 mph W14.8 kmh W 18.4 mph29.6 kmh 30.30 in1026.1 mb - 0.00 in0.0 mm 0.00 in0.0 mm
04:20 PM 36.1°F2.3°C 20.1°F-6.6°C 52% 9.2 mph WNW14.8 kmh WNW 13.8 mph22.2 kmh 30.30 in1026.1 mb - 0.00 in0.0 mm 0.00 in0.0 mm
04:15 PM 35.9°F2.2°C 20.4°F-6.4°C 53% 9.2 mph W14.8 kmh W 10.4 mph16.7 kmh 30.30 in1026.1 mb - 0.00 in0.0 mm 0.00 in0.0 mm
04:10 PM 36.0°F2.2°C 20.5°F-6.4°C 53% 10.4 mph NW16.7 kmh NW 12.7 mph20.4 kmh 30.30 in1026.1 mb - 0.00 in0.0 mm 0.00 in0.0 mm
04:00 PM 35.5°F1.9°C 20.5°F-6.4°C 54% 10.4 mph W16.7 kmh W 20.7 mph33.3 kmh 30.30 in1026.1 mb - 0.00 in0.0 mm 0.00 in0.0 mm
03:50 PM 34.9°F1.6°C 19.9°F-6.7°C 54% 13.8 mph WNW22.2 kmh WNW 18.4 mph29.6 kmh 30.30 in1026.1 mb - 0.00 in0.0 mm 0.00 in0.0 mm
03:45 PM 35.5°F1.9°C 20.0°F-6.7°C 53% 15.0 mph NW24.1 kmh NW 20.7 mph33.3 kmh 30.30 in1026.1 mb - 0.00 in0.0 mm 0.00 in0.0 mm
03:40 PM 35.2°F1.8°C 20.2°F-6.6°C 54% 6.9 mph NNW11.1 kmh NNW 16.1 mph25.9 kmh 30.30 in1026.1 mb - 0.00 in0.0 mm 0.00 in0.0 mm
03:30 PM 34.7°F1.5°C 20.2°F-6.6°C 55% 10.4 mph WNW16.7 kmh WNW 15.0 mph24.1 kmh 30.30 in1026.1 mb - 0.00 in0.0 mm 0.00 in0.0 mm
03:20 PM 34.2°F1.2°C 19.7°F-6.8°C 55% 16.1 mph NW25.9 kmh NW 23.0 mph37.0 kmh 30.30 in1026.1 mb - 0.00 in0.0 mm 0.00 in0.0 mm
03:15 PM 34.4°F1.3°C 19.9°F-6.7°C 55% 13.8 mph NW22.2 kmh NW 20.7 mph33.3 kmh 30.30 in1026.1 mb - 0.00 in0.0 mm 0.00 in0.0 mm
03:10 PM 34.3°F1.3°C 20.3°F-6.5°C 56% 8.1 mph WNW13.0 kmh WNW 9.2 mph14.8 kmh 30.30 in1026.1 mb - 0.00 in0.0 mm 0.00 in0.0 mm
03:00 PM 34.2°F1.2°C 20.5°F-6.4°C 57% 8.1 mph WNW13.0 kmh WNW 12.7 mph20.4 kmh 30.29 in1025.7 mb - 0.00 in0.0 mm 0.00 in0.0 mm
02:50 PM 33.4°F0.8°C 19.8°F-6.8°C 57% 15.0 mph WNW24.1 kmh WNW 19.6 mph31.5 kmh 30.29 in1025.7 mb - 0.00 in0.0 mm 0.00 in0.0 mm
02:45 PM 33.4°F0.8°C 19.8°F-6.8°C 57% 6.9 mph W11.1 kmh W 12.7 mph20.4 kmh 30.29 in1025.7 mb - 0.00 in0.0 mm 0.00 in0.0 mm
02:40 PM 33.3°F0.7°C 20.5°F-6.4°C 59% 8.1 mph WNW13.0 kmh WNW 12.7 mph20.4 kmh 30.29 in1025.7 mb - 0.00 in0.0 mm 0.00 in0.0 mm
02:30 PM 32.8°F0.4°C 19.2°F-7.1°C 57% 9.2 mph NW14.8 kmh NW 10.4 mph16.7 kmh 30.29 in1025.7 mb - 0.00 in0.0 mm 0.00 in0.0 mm
02:20 PM 32.5°F0.3°C 19.3°F-7.1°C 58% 6.9 mph NW11.1 kmh NW 9.2 mph14.8 kmh 30.29 in1025.7 mb - 0.00 in0.0 mm 0.00 in0.0 mm
02:15 PM 32.5°F0.3°C 19.7°F-6.8°C 59% 5.8 mph NW9.3 kmh NW 11.5 mph18.5 kmh 30.29 in1025.7 mb - 0.00 in0.0 mm 0.00 in0.0 mm
02:10 PM 32.1°F0.1°C 19.4°F-7.0°C 59% 8.1 mph NW13.0 kmh NW 13.8 mph22.2 kmh 30.28 in1025.4 mb - 0.00 in0.0 mm 0.00 in0.0 mm
02:00 PM 31.5°F-0.3°C 18.8°F-7.3°C 59% 9.2 mph WNW14.8 kmh WNW 11.5 mph18.5 kmh 30.27 in1025.1 mb - 0.00 in0.0 mm 0.00 in0.0 mm
01:50 PM 31.1°F-0.5°C 18.8°F-7.3°C 60% 12.7 mph W20.4 kmh W 20.7 mph33.3 kmh 30.27 in1025.1 mb - 0.00 in0.0 mm 0.00 in0.0 mm
01:45 PM 30.9°F-0.6°C 18.6°F-7.4°C 60% 8.1 mph NNW13.0 kmh NNW 17.3 mph27.8 kmh 30.27 in1025.1 mb - 0.00 in0.0 mm 0.00 in0.0 mm
01:40 PM 30.7°F-0.7°C 19.6°F-6.9°C 63% 9.2 mph NNW14.8 kmh NNW 16.1 mph25.9 kmh 30.27 in1025.1 mb - 0.00 in0.0 mm 0.00 in0.0 mm
01:30 PM 30.3°F-0.9°C 18.5°F-7.5°C 61% 6.9 mph WNW11.1 kmh WNW 9.2 mph14.8 kmh 30.27 in1025.1 mb - 0.00 in0.0 mm 0.00 in0.0 mm
01:20 PM 29.8°F-1.2°C 18.0°F-7.8°C 61% 5.8 mph W9.3 kmh W 6.9 mph11.1 kmh 30.27 in1025.1 mb - 0.00 in0.0 mm 0.00 in0.0 mm
01:15 PM 29.6°F-1.3°C 17.8°F-7.9°C 61% 6.9 mph W11.1 kmh W 8.1 mph13.0 kmh 30.27 in1025.1 mb - 0.00 in0.0 mm 0.00 in0.0 mm
01:10 PM 29.4°F-1.4°C 18.0°F-7.8°C 62% 5.8 mph W9.3 kmh W 11.5 mph18.5 kmh 30.27 in1025.1 mb - 0.00 in0.0 mm 0.00 in0.0 mm
01:00 PM 28.8°F-1.8°C 17.4°F-8.1°C 62% 10.4 mph W16.7 kmh W 12.7 mph20.4 kmh 30.26 in1024.7 mb - 0.00 in0.0 mm 0.00 in0.0 mm
12:50 PM 28.5°F-1.9°C 17.5°F-8.1°C 63% 6.9 mph W11.1 kmh W 10.4 mph16.7 kmh 30.26 in1024.7 mb - 0.00 in0.0 mm 0.00 in0.0 mm
12:45 PM 28.2°F-2.1°C 17.2°F-8.2°C 63% 4.6 mph W7.4 kmh W 9.2 mph14.8 kmh 30.26 in1024.7 mb - 0.00 in0.0 mm 0.00 in0.0 mm
12:40 PM 28.0°F-2.2°C 17.0°F-8.3°C 63% 4.6 mph WNW7.4 kmh WNW 4.6 mph7.4 kmh 30.25 in1024.4 mb - 0.00 in0.0 mm 0.00 in0.0 mm
12:30 PM 27.6°F-2.4°C 16.6°F-8.6°C 63% 10.4 mph WNW16.7 kmh WNW 19.6 mph31.5 kmh 30.25 in1024.4 mb - 0.00 in0.0 mm 0.00 in0.0 mm
12:20 PM 27.5°F-2.5°C 16.5°F-8.6°C 63% 6.9 mph WSW11.1 kmh WSW 10.4 mph16.7 kmh 30.25 in1024.4 mb - 0.00 in0.0 mm 0.00 in0.0 mm
12:15 PM 27.5°F-2.5°C 16.5°F-8.6°C 63% 6.9 mph W11.1 kmh W 11.5 mph18.5 kmh 30.25 in1024.4 mb - 0.00 in0.0 mm 0.00 in0.0 mm
12:10 PM 27.5°F-2.5°C 16.5°F-8.6°C 63% 8.1 mph WSW13.0 kmh WSW 9.2 mph14.8 kmh 30.25 in1024.4 mb - 0.00 in0.0 mm 0.00 in0.0 mm
12:00 PM 27.4°F-2.6°C 16.5°F-8.6°C 63% 4.6 mph WNW7.4 kmh WNW 5.8 mph9.3 kmh 30.25 in1024.4 mb - 0.00 in0.0 mm 0.00 in0.0 mm
11:50 AM 27.4°F-2.6°C 16.1°F-8.8°C 62% 3.5 mph W5.6 kmh W 8.1 mph13.0 kmh 30.25 in1024.4 mb - 0.00 in0.0 mm 0.00 in0.0 mm
11:45 AM 27.5°F-2.5°C 16.2°F-8.8°C 62% 5.8 mph W9.3 kmh W 11.5 mph18.5 kmh 30.25 in1024.4 mb - 0.00 in0.0 mm 0.00 in0.0 mm
11:40 AM 27.5°F-2.5°C 16.2°F-8.8°C 62% 2.3 mph W3.7 kmh W 3.5 mph5.6 kmh 30.25 in1024.4 mb - 0.00 in0.0 mm 0.00 in0.0 mm
11:30 AM 27.6°F-2.4°C 15.9°F-8.9°C 61% 8.1 mph W13.0 kmh W 12.7 mph20.4 kmh 30.24 in1024.0 mb - 0.00 in0.0 mm 0.00 in0.0 mm
11:20 AM 27.6°F-2.4°C 15.9°F-8.9°C 61% 3.5 mph WSW5.6 kmh WSW 9.2 mph14.8 kmh 30.23 in1023.7 mb - 0.00 in0.0 mm 0.00 in0.0 mm
11:15 AM 27.6°F-2.4°C 15.9°F-8.9°C 61% 5.8 mph NW9.3 kmh NW 9.2 mph14.8 kmh 30.23 in1023.7 mb - 0.00 in0.0 mm 0.00 in0.0 mm
11:10 AM 27.7°F-2.4°C 16.0°F-8.9°C 61% 8.1 mph WNW13.0 kmh WNW 17.3 mph27.8 kmh 30.23 in1023.7 mb - 0.00 in0.0 mm 0.00 in0.0 mm
11:00 AM 27.7°F-2.4°C 15.6°F-9.1°C 60% 6.9 mph W11.1 kmh W 11.5 mph18.5 kmh 30.23 in1023.7 mb - 0.00 in0.0 mm 0.00 in0.0 mm
10:50 AM 27.8°F-2.3°C 15.7°F-9.1°C 60% 8.1 mph W13.0 kmh W 13.8 mph22.2 kmh 30.23 in1023.7 mb - 0.00 in0.0 mm 0.00 in0.0 mm
10:45 AM 27.9°F-2.3°C 15.8°F-9.0°C 60% 5.8 mph NW9.3 kmh NW 10.4 mph16.7 kmh 30.23 in1023.7 mb - 0.00 in0.0 mm 0.00 in0.0 mm
10:40 AM 27.9°F-2.3°C 15.8°F-9.0°C 60% 8.1 mph WNW13.0 kmh WNW 12.7 mph20.4 kmh 30.23 in1023.7 mb - 0.00 in0.0 mm 0.00 in0.0 mm
10:30 AM 27.9°F-2.3°C 15.4°F-9.2°C 59% 8.1 mph WNW13.0 kmh WNW 13.8 mph22.2 kmh 30.22 in1023.4 mb - 0.00 in0.0 mm 0.00 in0.0 mm
10:20 AM 27.9°F-2.3°C 15.4°F-9.2°C 59% 8.1 mph WNW13.0 kmh WNW 13.8 mph22.2 kmh 30.22 in1023.4 mb - 0.00 in0.0 mm 0.00 in0.0 mm
10:15 AM 27.9°F-2.3°C 15.4°F-9.2°C 59% 10.4 mph NW16.7 kmh NW 15.0 mph24.1 kmh 30.22 in1023.4 mb - 0.00 in0.0 mm 0.00 in0.0 mm
10:10 AM 27.9°F-2.3°C 15.4°F-9.2°C 59% 5.8 mph NW9.3 kmh NW 10.4 mph16.7 kmh 30.22 in1023.4 mb - 0.00 in0.0 mm 0.00 in0.0 mm
10:00 AM 27.9°F-2.3°C 15.4°F-9.2°C 59% 10.4 mph W16.7 kmh W 11.5 mph18.5 kmh 30.21 in1023.0 mb - 0.00 in0.0 mm 0.00 in0.0 mm
09:50 AM 27.9°F-2.3°C 15.4°F-9.2°C 59% 8.1 mph WNW13.0 kmh WNW 15.0 mph24.1 kmh 30.21 in1023.0 mb - 0.00 in0.0 mm 0.00 in0.0 mm
09:45 AM 28.0°F-2.2°C 15.1°F-9.4°C 58% 4.6 mph WNW7.4 kmh WNW 10.4 mph16.7 kmh 30.21 in1023.0 mb - 0.00 in0.0 mm 0.00 in0.0 mm
09:40 AM 28.0°F-2.2°C 15.1°F-9.4°C 58% 8.1 mph WNW13.0 kmh WNW 13.8 mph22.2 kmh 30.21 in1023.0 mb - 0.00 in0.0 mm 0.00 in0.0 mm
09:30 AM 28.1°F-2.2°C 15.2°F-9.3°C 58% 8.1 mph WNW13.0 kmh WNW 12.7 mph20.4 kmh 30.21 in1023.0 mb - 0.00 in0.0 mm 0.00 in0.0 mm
09:20 AM 28.2°F-2.1°C 15.3°F-9.3°C 58% 6.9 mph WNW11.1 kmh WNW 12.7 mph20.4 kmh 30.21 in1023.0 mb - 0.00 in0.0 mm 0.00 in0.0 mm
09:15 AM 28.2°F-2.1°C 14.9°F-9.5°C 57% 10.4 mph W16.7 kmh W 16.1 mph25.9 kmh 30.21 in1023.0 mb - 0.00 in0.0 mm 0.00 in0.0 mm
09:10 AM 28.3°F-2.1°C 15.0°F-9.4°C 57% 10.4 mph W16.7 kmh W 10.4 mph16.7 kmh 30.21 in1023.0 mb - 0.00 in0.0 mm 0.00 in0.0 mm
09:00 AM 28.3°F-2.1°C 15.0°F-9.4°C 57% 8.1 mph W13.0 kmh W 12.7 mph20.4 kmh 30.21 in1023.0 mb - 0.00 in0.0 mm 0.00 in0.0 mm
08:50 AM 28.5°F-1.9°C 14.7°F-9.6°C 56% 8.1 mph NW13.0 kmh NW 11.5 mph18.5 kmh 30.21 in1023.0 mb - 0.00 in0.0 mm 0.00 in0.0 mm
08:45 AM 28.5°F-1.9°C 14.8°F-9.6°C 56% 6.9 mph WNW11.1 kmh WNW 18.4 mph29.6 kmh 30.22 in1023.4 mb - 0.00 in0.0 mm 0.00 in0.0 mm
08:40 AM 28.5°F-1.9°C 14.8°F-9.6°C 56% 5.8 mph WNW9.3 kmh WNW 12.7 mph20.4 kmh 30.21 in1023.0 mb - 0.00 in0.0 mm 0.00 in0.0 mm
08:30 AM 28.6°F-1.9°C 15.3°F-9.3°C 57% 11.5 mph W18.5 kmh W 15.0 mph24.1 kmh 30.21 in1023.0 mb - 0.00 in0.0 mm 0.00 in0.0 mm
08:20 AM 28.8°F-1.8°C 15.4°F-9.2°C 57% 8.1 mph W13.0 kmh W 12.7 mph20.4 kmh 30.21 in1023.0 mb - 0.00 in0.0 mm 0.00 in0.0 mm
08:15 AM 28.9°F-1.7°C 15.5°F-9.2°C 57% 3.5 mph WNW5.6 kmh WNW 9.2 mph14.8 kmh 30.21 in1023.0 mb - 0.00 in0.0 mm 0.00 in0.0 mm
08:10 AM 28.9°F-1.7°C 15.5°F-9.2°C 57% 9.2 mph WNW14.8 kmh WNW 17.3 mph27.8 kmh 30.21 in1023.0 mb - 0.00 in0.0 mm 0.00 in0.0 mm
08:00 AM 29.0°F-1.7°C 15.7°F-9.1°C 57% 4.6 mph WNW7.4 kmh WNW 11.5 mph18.5 kmh 30.20 in1022.7 mb - 0.00 in0.0 mm 0.00 in0.0 mm
07:50 AM 29.2°F-1.6°C 15.8°F-9.0°C 57% 10.4 mph WNW16.7 kmh WNW 17.3 mph27.8 kmh 30.20 in1022.7 mb - 0.00 in0.0 mm 0.00 in0.0 mm
07:45 AM 29.2°F-1.6°C 15.8°F-9.0°C 57% 6.9 mph WNW11.1 kmh WNW 20.7 mph33.3 kmh 30.20 in1022.7 mb - 0.00 in0.0 mm 0.00 in0.0 mm
07:40 AM 29.2°F-1.6°C 15.8°F-9.0°C 57% 8.1 mph WNW13.0 kmh WNW 15.0 mph24.1 kmh 30.20 in1022.7 mb - 0.00 in0.0 mm 0.00 in0.0 mm
07:30 AM 29.2°F-1.6°C 15.9°F-8.9°C 57% 8.1 mph WNW13.0 kmh WNW 12.7 mph20.4 kmh 30.20 in1022.7 mb - 0.00 in0.0 mm 0.00 in0.0 mm
07:20 AM 29.3°F-1.5°C 15.9°F-8.9°C 57% 10.4 mph WNW16.7 kmh WNW 13.8 mph22.2 kmh 30.20 in1022.7 mb - 0.00 in0.0 mm 0.00 in0.0 mm
07:15 AM 29.4°F-1.4°C 16.0°F-8.9°C 57% 8.1 mph NW13.0 kmh NW 12.7 mph20.4 kmh 30.20 in1022.7 mb - 0.00 in0.0 mm 0.00 in0.0 mm
07:10 AM 29.4°F-1.4°C 16.1°F-8.8°C 57% 5.8 mph WNW9.3 kmh WNW 6.9 mph11.1 kmh 30.20 in1022.7 mb - 0.00 in0.0 mm 0.00 in0.0 mm
07:00 AM 29.5°F-1.4°C 16.5°F-8.6°C 58% 3.5 mph WSW5.6 kmh WSW 9.2 mph14.8 kmh 30.19 in1022.4 mb - 0.00 in0.0 mm 0.00 in0.0 mm
06:50 AM 29.7°F-1.3°C 16.7°F-8.5°C 58% 8.1 mph W13.0 kmh W 12.7 mph20.4 kmh 30.18 in1022.0 mb - 0.00 in0.0 mm 0.00 in0.0 mm
06:45 AM 29.7°F-1.3°C 16.3°F-8.7°C 57% 1.2 mph WNW1.9 kmh WNW 1.2 mph1.9 kmh 30.18 in1022.0 mb - 0.00 in0.0 mm 0.00 in0.0 mm
06:40 AM 29.7°F-1.3°C 16.3°F-8.7°C 57% 8.1 mph WNW13.0 kmh WNW 12.7 mph20.4 kmh 30.18 in1022.0 mb - 0.00 in0.0 mm 0.00 in0.0 mm
06:30 AM 29.9°F-1.2°C 16.5°F-8.6°C 57% 9.2 mph W14.8 kmh W 12.7 mph20.4 kmh 30.17 in1021.7 mb - 0.00 in0.0 mm 0.00 in0.0 mm
06:20 AM 30.0°F-1.1°C 16.6°F-8.6°C 57% 9.2 mph WNW14.8 kmh WNW 12.7 mph20.4 kmh 30.17 in1021.7 mb - 0.00 in0.0 mm 0.00 in0.0 mm
06:15 AM 30.1°F-1.1°C 16.7°F-8.5°C 57% 6.9 mph W11.1 kmh W 10.4 mph16.7 kmh 30.17 in1021.7 mb - 0.00 in0.0 mm 0.00 in0.0 mm
06:10 AM 30.1°F-1.1°C 17.1°F-8.3°C 58% 9.2 mph W14.8 kmh W 16.1 mph25.9 kmh 30.17 in1021.7 mb - 0.00 in0.0 mm 0.00 in0.0 mm
06:00 AM 30.2°F-1.0°C 17.2°F-8.2°C 58% 10.4 mph W16.7 kmh W 15.0 mph24.1 kmh 30.17 in1021.7 mb - 0.00 in0.0 mm 0.00 in0.0 mm
05:50 AM 30.3°F-0.9°C 17.7°F-7.9°C 59% 9.2 mph WSW14.8 kmh WSW 9.2 mph14.8 kmh 30.17 in1021.7 mb - 0.00 in0.0 mm 0.00 in0.0 mm
05:45 AM 30.3°F-0.9°C 17.3°F-8.2°C 58% 9.2 mph WNW14.8 kmh WNW 11.5 mph18.5 kmh 30.17 in1021.7 mb - 0.00 in0.0 mm 0.00 in0.0 mm
05:40 AM 30.4°F-0.9°C 17.4°F-8.1°C 58% 4.6 mph W7.4 kmh W 8.1 mph13.0 kmh 30.16 in1021.3 mb - 0.00 in0.0 mm 0.00 in0.0 mm
05:30 AM 30.5°F-0.8°C 17.1°F-8.3°C 57% 6.9 mph W11.1 kmh W 15.0 mph24.1 kmh 30.16 in1021.3 mb - 0.00 in0.0 mm 0.00 in0.0 mm
05:20 AM 30.7°F-0.7°C 17.2°F-8.2°C 57% 6.9 mph W11.1 kmh W 10.4 mph16.7 kmh 30.16 in1021.3 mb - 0.00 in0.0 mm 0.00 in0.0 mm
05:15 AM 30.8°F-0.7°C 16.9°F-8.4°C 56% 8.1 mph WNW13.0 kmh WNW 12.7 mph20.4 kmh 30.16 in1021.3 mb - 0.00 in0.0 mm 0.00 in0.0 mm
05:10 AM 30.8°F-0.7°C 16.9°F-8.4°C 56% 8.1 mph WNW13.0 kmh WNW 10.4 mph16.7 kmh 30.16 in1021.3 mb - 0.00 in0.0 mm 0.00 in0.0 mm
05:00 AM 30.7°F-0.7°C 17.2°F-8.2°C 57% 15.0 mph W24.1 kmh W 20.7 mph33.3 kmh 30.16 in1021.3 mb - 0.00 in0.0 mm 0.00 in0.0 mm
04:50 AM 30.8°F-0.7°C 16.9°F-8.4°C 56% 11.5 mph WNW18.5 kmh WNW 16.1 mph25.9 kmh 30.16 in1021.3 mb - 0.00 in0.0 mm 0.00 in0.0 mm
04:45 AM 30.8°F-0.7°C 16.9°F-8.4°C 56% 6.9 mph NW11.1 kmh NW 6.9 mph11.1 kmh 30.16 in1021.3 mb - 0.00 in0.0 mm 0.00 in0.0 mm
04:40 AM 30.8°F-0.7°C 16.9°F-8.4°C 56% 11.5 mph W18.5 kmh W 17.3 mph27.8 kmh 30.17 in1021.7 mb - 0.00 in0.0 mm 0.00 in0.0 mm
04:30 AM 30.9°F-0.6°C 17.0°F-8.3°C 56% 4.6 mph WSW7.4 kmh WSW 11.5 mph18.5 kmh 30.17 in1021.7 mb - 0.00 in0.0 mm 0.00 in0.0 mm
04:20 AM 31.1°F-0.5°C 16.8°F-8.4°C 55% 4.6 mph W7.4 kmh W 6.9 mph11.1 kmh 30.17 in1021.7 mb - 0.00 in0.0 mm 0.00 in0.0 mm
04:15 AM 31.1°F-0.5°C 16.8°F-8.4°C 55% 4.6 mph NW7.4 kmh NW 5.8 mph9.3 kmh 30.17 in1021.7 mb - 0.00 in0.0 mm 0.00 in0.0 mm
04:10 AM 31.1°F-0.5°C 16.8°F-8.4°C 55% 12.7 mph WNW20.4 kmh WNW 15.0 mph24.1 kmh 30.16 in1021.3 mb - 0.00 in0.0 mm 0.00 in0.0 mm
04:00 AM 31.2°F-0.4°C 16.4°F-8.7°C 54% 8.1 mph WNW13.0 kmh WNW 9.2 mph14.8 kmh 30.16 in1021.3 mb - 0.00 in0.0 mm 0.00 in0.0 mm
03:50 AM 31.3°F-0.4°C 16.5°F-8.6°C 54% 6.9 mph WNW11.1 kmh WNW 12.7 mph20.4 kmh 30.16 in1021.3 mb - 0.00 in0.0 mm 0.00 in0.0 mm
03:45 AM 31.3°F-0.4°C 16.5°F-8.6°C 54% 9.2 mph WNW14.8 kmh WNW 13.8 mph22.2 kmh 30.16 in1021.3 mb - 0.00 in0.0 mm 0.00 in0.0 mm
03:40 AM 31.4°F-0.3°C 16.2°F-8.8°C 53% 11.5 mph WNW18.5 kmh WNW 15.0 mph24.1 kmh 30.16 in1021.3 mb - 0.00 in0.0 mm 0.00 in0.0 mm
03:30 AM 31.6°F-0.2°C 16.0°F-8.9°C 52% 8.1 mph W13.0 kmh W 11.5 mph18.5 kmh 30.16 in1021.3 mb - 0.00 in0.0 mm 0.00 in0.0 mm
03:20 AM 31.7°F-0.2°C 16.1°F-8.8°C 52% 6.9 mph NW11.1 kmh NW 12.7 mph20.4 kmh 30.16 in1021.3 mb - 0.00 in0.0 mm 0.00 in0.0 mm
03:15 AM 31.8°F-0.1°C 15.7°F-9.1°C 51% 5.8 mph WNW9.3 kmh WNW 8.1 mph13.0 kmh 30.16 in1021.3 mb - 0.00 in0.0 mm 0.00 in0.0 mm
03:10 AM 31.9°F-0.1°C 15.8°F-9.0°C 51% 12.7 mph NW20.4 kmh NW 19.6 mph31.5 kmh 30.15 in1021.0 mb - 0.00 in0.0 mm 0.00 in0.0 mm
03:00 AM 32.1°F0.1°C 16.4°F-8.7°C 52% 10.4 mph WNW16.7 kmh WNW 12.7 mph20.4 kmh 30.15 in1021.0 mb - 0.00 in0.0 mm 0.00 in0.0 mm
02:50 AM 32.2°F0.1°C 16.1°F-8.8°C 51% 13.8 mph NW22.2 kmh NW 21.9 mph35.2 kmh 30.15 in1021.0 mb - 0.00 in0.0 mm 0.00 in0.0 mm
02:45 AM 32.2°F0.1°C 16.1°F-8.8°C 51% 12.7 mph NW20.4 kmh NW 12.7 mph20.4 kmh 30.15 in1021.0 mb - 0.00 in0.0 mm 0.00 in0.0 mm
02:40 AM 32.3°F0.2°C 16.6°F-8.6°C 52% 8.1 mph WNW13.0 kmh WNW 12.7 mph20.4 kmh 30.15 in1021.0 mb - 0.00 in0.0 mm 0.00 in0.0 mm
02:30 AM 32.4°F0.2°C 16.7°F-8.5°C 52% 10.4 mph W16.7 kmh W 18.4 mph29.6 kmh 30.15 in1021.0 mb - 0.00 in0.0 mm 0.00 in0.0 mm
02:20 AM 32.6°F0.3°C 16.9°F-8.4°C 52% 4.6 mph WNW7.4 kmh WNW 9.2 mph14.8 kmh 30.15 in1021.0 mb - 0.00 in0.0 mm 0.00 in0.0 mm
02:15 AM 32.6°F0.3°C 16.9°F-8.4°C 52% 9.2 mph WNW14.8 kmh WNW 20.7 mph33.3 kmh 30.15 in1021.0 mb - 0.00 in0.0 mm 0.00 in0.0 mm
02:10 AM 32.6°F0.3°C 16.9°F-8.4°C 52% 13.8 mph NW22.2 kmh NW 18.4 mph29.6 kmh 30.14 in1020.7 mb - 0.00 in0.0 mm 0.00 in0.0 mm
02:00 AM 32.8°F0.4°C 17.5°F-8.1°C 53% 12.7 mph NW20.4 kmh NW 19.6 mph31.5 kmh 30.14 in1020.7 mb - 0.00 in0.0 mm 0.00 in0.0 mm
01:50 AM 33.0°F0.6°C 17.7°F-7.9°C 53% 4.6 mph W7.4 kmh W 12.7 mph20.4 kmh 30.14 in1020.7 mb - 0.00 in0.0 mm 0.00 in0.0 mm
01:45 AM 33.1°F0.6°C 17.8°F-7.9°C 53% 10.4 mph WNW16.7 kmh WNW 15.0 mph24.1 kmh 30.14 in1020.7 mb - 0.00 in0.0 mm 0.00 in0.0 mm
01:40 AM 33.1°F0.6°C 17.8°F-7.9°C 53% 11.5 mph NW18.5 kmh NW 20.7 mph33.3 kmh 30.14 in1020.7 mb - 0.00 in0.0 mm 0.00 in0.0 mm
01:30 AM 33.5°F0.8°C 17.8°F-7.9°C 52% 8.1 mph NW13.0 kmh NW 11.5 mph18.5 kmh 30.13 in1020.3 mb - 0.00 in0.0 mm 0.00 in0.0 mm
01:20 AM 34.0°F1.1°C 18.2°F-7.7°C 52% 13.8 mph WNW22.2 kmh WNW 20.7 mph33.3 kmh 30.12 in1020.0 mb - 0.00 in0.0 mm 0.00 in0.0 mm
01:10 AM 34.6°F1.4°C 19.2°F-7.1°C 53% 10.4 mph WNW16.7 kmh WNW 16.1 mph25.9 kmh 30.12 in1020.0 mb - 0.00 in0.0 mm 0.00 in0.0 mm
01:00 AM 35.0°F1.7°C 20.0°F-6.7°C 54% 8.1 mph NW13.0 kmh NW 11.5 mph18.5 kmh 30.12 in1020.0 mb - 0.00 in0.0 mm 0.00 in0.0 mm
12:50 AM 35.4°F1.9°C 19.9°F-6.7°C 53% 9.2 mph WNW14.8 kmh WNW 12.7 mph20.4 kmh 30.11 in1019.6 mb - 0.00 in0.0 mm 0.00 in0.0 mm
12:45 AM 35.5°F1.9°C 20.1°F-6.6°C 53% 6.9 mph WNW11.1 kmh WNW 19.6 mph31.5 kmh 30.11 in1019.6 mb - 0.00 in0.0 mm 0.00 in0.0 mm
12:40 AM 35.7°F2.1°C 19.8°F-6.8°C 52% 10.4 mph WNW16.7 kmh WNW 12.7 mph20.4 kmh 30.11 in1019.6 mb - 0.00 in0.0 mm 0.00 in0.0 mm
12:30 AM 36.1°F2.3°C 20.2°F-6.6°C 52% 4.6 mph NW7.4 kmh NW 13.8 mph22.2 kmh 30.11 in1019.6 mb - 0.00 in0.0 mm 0.00 in0.0 mm
12:20 AM 36.6°F2.6°C 20.2°F-6.6°C 51% 11.5 mph NW18.5 kmh NW 21.9 mph35.2 kmh 30.10 in1019.3 mb - 0.00 in0.0 mm 0.00 in0.0 mm
12:15 AM 36.8°F2.7°C 19.9°F-6.7°C 50% 10.4 mph WNW16.7 kmh WNW 13.8 mph22.2 kmh 30.10 in1019.3 mb - 0.00 in0.0 mm 0.00 in0.0 mm
12:10 AM 37.0°F2.8°C 20.0°F-6.7°C 50% 9.2 mph NW14.8 kmh NW 11.5 mph18.5 kmh 30.10 in1019.3 mb - 0.00 in0.0 mm 0.00 in0.0 mm
12:00 AM 37.4°F3.0°C 20.4°F-6.4°C 50% 5.8 mph NW9.3 kmh NW 9.2 mph14.8 kmh 30.09 in1019.0 mb - 0.00 in0.0 mm 0.00 in0.0 mm